createdAt,value
2022-10-14T00:00:34.883Z,70.39
2022-10-14T00:03:01.356Z,70.97
2022-10-14T00:05:28.018Z,70.91
2022-10-14T00:07:54.514Z,70.71
2022-10-14T00:10:21.197Z,70.92
2022-10-14T00:12:47.849Z,70.97
2022-10-14T00:15:14.347Z,70.98
2022-10-14T00:17:40.962Z,71.21
2022-10-14T00:20:08.126Z,71.48
2022-10-14T00:22:34.933Z,71.53
2022-10-14T00:25:01.671Z,71.69
2022-10-14T00:27:28.205Z,72.13
2022-10-14T00:29:54.830Z,72.41
2022-10-14T00:32:21.283Z,72.71
2022-10-14T00:34:47.865Z,72.44
2022-10-14T00:37:14.337Z,72.59
2022-10-14T00:39:40.828Z,72.57
2022-10-14T00:42:15.041Z,72.61
2022-10-14T00:44:44.636Z,72.37
2022-10-14T00:47:11.781Z,72.66
2022-10-14T00:49:42.264Z,72.92
2022-10-14T00:52:15.933Z,72.91
2022-10-14T00:54:50.128Z,72.84
2022-10-14T00:57:17.593Z,72.98
2022-10-14T00:59:44.177Z,72.69
2022-10-14T01:02:10.677Z,72.90
2022-10-14T01:04:39.580Z,72.77
2022-10-14T01:07:09.051Z,72.70
2022-10-14T01:09:46.124Z,72.24
2022-10-14T01:12:29.232Z,72.38
2022-10-14T01:15:11.650Z,72.59
2022-10-14T01:18:04.631Z,72.62
2022-10-14T01:20:49.763Z,72.76
2022-10-14T01:23:38.885Z,72.64
2022-10-14T01:26:36.388Z,72.88
2022-10-14T01:29:25.806Z,72.79
2022-10-14T01:32:13.130Z,72.60
2022-10-14T01:34:46.858Z,73.13
2022-10-14T01:37:23.066Z,73.24
2022-10-14T01:39:55.392Z,73.38
2022-10-14T01:42:26.396Z,73.77
2022-10-14T01:44:59.209Z,74.04
2022-10-14T01:47:29.452Z,74.10
2022-10-14T01:50:04.623Z,74.21
2022-10-14T01:52:37.766Z,74.08
2022-10-14T01:55:09.558Z,74.45
2022-10-14T01:57:39.686Z,74.38
2022-10-14T02:00:06.840Z,74.73
2022-10-14T02:02:37.266Z,74.68
2022-10-14T02:05:14.403Z,75.05
2022-10-14T02:07:47.472Z,74.89
2022-10-14T02:10:21.370Z,74.64
2022-10-14T02:12:53.586Z,74.43
2022-10-14T02:15:52.072Z,74.85
2022-10-14T02:18:21.416Z,74.58
2022-10-14T02:20:57.946Z,74.88
2022-10-14T02:23:30.030Z,74.77
2022-10-14T02:25:58.923Z,74.84
2022-10-14T02:28:29.081Z,74.70
2022-10-14T02:31:04.660Z,74.65
2022-10-14T02:33:37.890Z,74.75
2022-10-14T02:36:07.575Z,74.52
2022-10-14T02:38:34.491Z,74.28
2022-10-14T02:41:04.802Z,74.46
2022-10-14T02:43:31.476Z,74.60
2022-10-14T02:46:00.488Z,74.52
2022-10-14T02:48:26.971Z,74.38
2022-10-14T02:50:53.498Z,74.45
2022-10-14T02:53:19.994Z,74.29
2022-10-14T02:55:46.812Z,74.44
2022-10-14T02:58:13.402Z,74.64
2022-10-14T03:00:40.030Z,74.57
2022-10-14T03:03:06.934Z,74.97
2022-10-14T03:05:33.544Z,75.26
2022-10-14T03:07:59.998Z,75.48
2022-10-14T03:10:26.525Z,75.69
2022-10-14T03:12:53.193Z,76.26
2022-10-14T03:15:19.681Z,76.63
2022-10-14T03:17:46.211Z,76.48
2022-10-14T03:20:12.863Z,76.61
2022-10-14T03:22:39.369Z,76.95
2022-10-14T03:25:06.361Z,76.97
2022-10-14T03:27:33.054Z,77.25
2022-10-14T03:29:59.579Z,77.14
2022-10-14T03:32:26.050Z,77.23
2022-10-14T03:34:52.577Z,77.48
2022-10-14T03:37:19.022Z,77.56
2022-10-14T03:39:45.462Z,77.66
2022-10-14T03:42:12.028Z,77.38
2022-10-14T03:44:38.529Z,77.34
2022-10-14T03:47:05.081Z,77.56
2022-10-14T03:49:31.593Z,77.38
2022-10-14T03:51:58.162Z,77.63
2022-10-14T03:54:24.626Z,77.22
2022-10-14T03:56:51.100Z,77.22
2022-10-14T03:59:17.673Z,77.43
2022-10-14T04:01:44.215Z,77.06
2022-10-14T04:04:11.382Z,77.00
2022-10-14T04:06:37.912Z,76.86
2022-10-14T04:09:04.896Z,76.95
2022-10-14T04:11:31.387Z,77.30
2022-10-14T04:13:58.929Z,77.10
2022-10-14T04:16:25.602Z,77.12
2022-10-14T04:18:52.188Z,76.99
2022-10-14T04:21:18.910Z,76.77
2022-10-14T04:23:45.477Z,76.46
2022-10-14T04:26:12.170Z,76.74
2022-10-14T04:28:38.886Z,76.83
2022-10-14T04:31:05.887Z,76.78
2022-10-14T04:33:32.636Z,76.70
2022-10-14T04:36:01.012Z,76.80
2022-10-14T04:38:28.079Z,76.76
2022-10-14T04:40:55.282Z,77.17
2022-10-14T04:43:22.047Z,76.94
2022-10-14T04:45:49.217Z,76.92
2022-10-14T04:48:17.305Z,77.06
2022-10-14T04:50:44.339Z,76.88
2022-10-14T04:53:13.675Z,77.18
2022-10-14T04:55:41.018Z,77.87
2022-10-14T04:58:07.563Z,78.34
2022-10-14T05:00:34.392Z,78.84
2022-10-14T05:03:00.877Z,78.94
2022-10-14T05:05:27.380Z,79.05
2022-10-14T05:07:53.880Z,79.27
2022-10-14T05:10:20.430Z,79.10
2022-10-14T05:12:46.962Z,78.85
2022-10-14T05:15:13.659Z,78.85
2022-10-14T05:17:40.735Z,78.86
2022-10-14T05:20:07.624Z,78.87
2022-10-14T05:22:34.136Z,78.72
2022-10-14T05:25:00.656Z,78.57
2022-10-14T05:27:27.159Z,78.23
2022-10-14T05:29:53.693Z,78.42
2022-10-14T05:32:20.488Z,78.38
2022-10-14T05:34:47.232Z,78.36
2022-10-14T05:37:13.800Z,78.07
2022-10-14T05:39:40.377Z,77.90
2022-10-14T05:42:06.858Z,77.88
2022-10-14T05:44:33.317Z,78.11
2022-10-14T05:46:59.790Z,77.89
2022-10-14T05:49:26.248Z,78.00
2022-10-14T05:51:52.796Z,77.91
2022-10-14T05:54:19.399Z,77.82
2022-10-14T05:56:45.946Z,77.86
2022-10-14T05:59:12.454Z,78.06
2022-10-14T06:01:40.369Z,78.22
2022-10-14T06:04:06.918Z,78.08
2022-10-14T06:06:33.429Z,78.04
2022-10-14T06:08:59.978Z,78.29
2022-10-14T06:11:26.489Z,78.32
2022-10-14T06:13:53.096Z,78.57
2022-10-14T06:16:19.658Z,78.44
2022-10-14T06:18:47.375Z,78.59
2022-10-14T06:21:16.440Z,78.87
2022-10-14T06:23:42.954Z,79.19
2022-10-14T06:26:09.805Z,79.55
2022-10-14T06:28:37.356Z,79.43
2022-10-14T06:31:04.773Z,79.84
2022-10-14T06:33:31.479Z,79.66
2022-10-14T06:35:58.062Z,79.41
2022-10-14T06:38:24.834Z,79.62
2022-10-14T06:40:55.003Z,79.47
2022-10-14T06:43:22.432Z,79.56
2022-10-14T06:45:49.604Z,79.36
2022-10-14T06:48:16.240Z,79.34
2022-10-14T06:50:42.860Z,79.07
2022-10-14T06:53:09.444Z,79.56
2022-10-14T06:55:35.938Z,79.27
2022-10-14T06:58:02.463Z,79.35
2022-10-14T07:00:28.997Z,79.12
2022-10-14T07:02:55.648Z,79.35
2022-10-14T07:05:22.256Z,79.14
2022-10-14T07:07:48.809Z,79.58
2022-10-14T07:10:15.361Z,79.22
2022-10-14T07:12:41.942Z,79.30
2022-10-14T07:15:09.145Z,79.39
2022-10-14T07:17:35.630Z,79.33
2022-10-14T07:20:02.092Z,79.25
2022-10-14T07:22:28.580Z,79.34
2022-10-14T07:24:55.096Z,79.34
2022-10-14T07:27:21.877Z,79.23
2022-10-14T07:29:48.643Z,79.36
2022-10-14T07:32:15.092Z,79.14
2022-10-14T07:34:41.583Z,79.11
2022-10-14T07:37:08.176Z,78.81
2022-10-14T07:39:34.658Z,78.78
2022-10-14T07:42:01.174Z,78.62
2022-10-14T07:44:27.732Z,78.68
2022-10-14T07:46:54.557Z,78.67
2022-10-14T07:49:22.221Z,78.63
2022-10-14T07:51:49.956Z,78.93
2022-10-14T07:54:23.165Z,78.62
2022-10-14T07:56:50.055Z,78.24
2022-10-14T07:59:18.687Z,78.56
2022-10-14T08:01:49.727Z,78.43
2022-10-14T08:04:16.710Z,78.58
2022-10-14T08:06:43.243Z,79.06
2022-10-14T08:09:11.591Z,78.93
2022-10-14T08:11:38.527Z,79.18
2022-10-14T08:14:05.253Z,79.17
2022-10-14T08:16:34.223Z,79.54
2022-10-14T08:19:04.460Z,79.98
2022-10-14T08:21:31.021Z,79.80
2022-10-14T08:23:57.594Z,79.62
2022-10-14T08:26:30.978Z,79.58
2022-10-14T08:29:05.531Z,79.40
2022-10-14T08:31:33.565Z,79.54
2022-10-14T08:34:00.359Z,79.53
2022-10-14T08:36:27.085Z,79.90
2022-10-14T08:38:54.409Z,82.47
2022-10-14T08:41:46.918Z,83.81
2022-10-14T08:44:24.429Z,83.49
2022-10-14T08:46:54.430Z,83.83
2022-10-14T08:49:27.470Z,85.92
2022-10-14T08:52:01.250Z,85.48
2022-10-14T08:54:35.630Z,85.83
2022-10-14T08:57:04.847Z,85.76
2022-10-14T08:59:37.682Z,85.92
2022-10-14T09:02:20.238Z,86.08
2022-10-14T09:04:46.917Z,86.13
2022-10-14T09:07:18.026Z,85.81
2022-10-14T09:09:49.502Z,86.09
2022-10-14T09:12:24.468Z,85.99
2022-10-14T09:15:06.748Z,86.31
2022-10-14T09:17:40.486Z,86.45
2022-10-14T09:20:17.437Z,88.89
2022-10-14T09:22:46.357Z,89.74
2022-10-14T09:25:16.819Z,88.20
2022-10-14T09:27:43.744Z,89.28
2022-10-14T09:30:16.733Z,89.08
2022-10-14T09:32:49.124Z,88.89
2022-10-14T09:35:30.495Z,88.75
2022-10-14T09:37:57.076Z,89.08
2022-10-14T09:40:46.029Z,88.99
2022-10-14T09:43:21.382Z,88.18
2022-10-14T09:46:01.236Z,88.42
2022-10-14T09:48:47.718Z,88.27
2022-10-14T09:51:23.732Z,88.32
2022-10-14T09:53:58.419Z,87.69
2022-10-14T09:56:40.740Z,87.92
2022-10-14T09:59:22.607Z,87.09
2022-10-14T10:01:55.555Z,86.82
2022-10-14T10:04:33.905Z,85.83
2022-10-14T10:07:05.922Z,84.95
2022-10-14T10:09:33.828Z,83.93
2022-10-14T10:12:00.391Z,82.82
2022-10-14T10:14:32.437Z,82.42
2022-10-14T10:17:07.930Z,80.82
2022-10-14T10:19:37.118Z,79.92
2022-10-14T10:22:34.132Z,80.17
2022-10-14T10:25:00.580Z,78.29
2022-10-14T10:27:30.369Z,77.52
2022-10-14T10:29:56.897Z,74.77
2022-10-14T10:32:47.106Z,74.57
2022-10-14T10:35:43.484Z,71.22
2022-10-14T10:38:20.964Z,68.84
2022-10-14T10:40:50.379Z,66.74
2022-10-14T10:43:38.218Z,66.37
2022-10-14T10:46:04.717Z,66.55
2022-10-14T10:48:46.141Z,67.66
2022-10-14T10:51:16.885Z,65.12
2022-10-14T10:53:49.803Z,63.38
2022-10-14T10:56:33.530Z,62.95
2022-10-14T10:59:37.444Z,61.67
2022-10-14T11:02:15.895Z,62.14
2022-10-14T11:04:47.948Z,59.35
2022-10-14T11:07:47.888Z,60.21
2022-10-14T11:11:00.304Z,59.71
2022-10-14T11:13:45.432Z,58.46
2022-10-14T11:16:26.774Z,57.81
2022-10-14T11:19:14.840Z,57.35
2022-10-14T11:21:41.407Z,56.78
2022-10-14T11:24:40.825Z,56.80
2022-10-14T11:27:13.125Z,56.44
2022-10-14T11:29:39.789Z,55.92
2022-10-14T11:32:12.398Z,55.16
2022-10-14T11:34:53.025Z,55.25
2022-10-14T11:37:51.048Z,55.96
2022-10-14T11:40:41.285Z,54.99
2022-10-14T11:43:13.577Z,54.64
2022-10-14T11:45:44.116Z,54.47
2022-10-14T11:48:18.778Z,54.93
2022-10-14T11:50:50.487Z,54.07
2022-10-14T11:53:22.551Z,55.11
2022-10-14T11:56:02.238Z,53.44
2022-10-14T11:58:31.219Z,53.57
2022-10-14T12:01:02.071Z,53.34
2022-10-14T12:03:50.329Z,53.12
2022-10-14T12:06:22.575Z,52.58
2022-10-14T12:08:52.282Z,53.58
2022-10-14T12:13:48.942Z,62.97
2022-10-14T12:16:19.152Z,66.84
2022-10-14T12:18:50.000Z,67.81
2022-10-14T12:21:30.441Z,69.13
2022-10-14T12:24:00.972Z,69.78
2022-10-14T12:26:47.250Z,70.56
2022-10-14T12:29:18.851Z,71.23
2022-10-14T12:32:09.511Z,71.98
2022-10-14T12:34:41.146Z,72.62
2022-10-14T12:37:42.974Z,73.18
2022-10-14T12:40:12.973Z,73.00
2022-10-14T12:42:42.297Z,73.29
2022-10-14T12:45:19.107Z,73.51
2022-10-14T12:47:46.245Z,73.39
2022-10-14T12:50:15.675Z,73.13
2022-10-14T12:52:48.177Z,73.59
2022-10-14T12:55:21.033Z,73.49
2022-10-14T12:57:56.381Z,73.40
2022-10-14T13:00:22.785Z,73.26
2022-10-14T13:02:51.936Z,72.97
2022-10-14T13:05:35.767Z,73.36
2022-10-14T13:08:11.669Z,73.24
2022-10-14T13:10:41.868Z,73.28
2022-10-14T13:13:44.733Z,73.21
2022-10-14T13:16:31.200Z,73.39
2022-10-14T13:18:59.029Z,72.95
2022-10-14T13:21:34.421Z,72.99
2022-10-14T13:24:05.809Z,72.97
2022-10-14T13:26:42.496Z,72.72
2022-10-14T13:29:22.490Z,73.00
2022-10-14T13:31:51.730Z,72.75
2022-10-14T13:34:36.849Z,72.02
2022-10-14T13:37:33.522Z,71.74
2022-10-14T13:40:37.751Z,71.89
2022-10-14T13:43:13.037Z,71.54
2022-10-14T13:45:43.190Z,71.27
2022-10-14T13:48:17.000Z,71.23
2022-10-14T13:50:44.937Z,71.07
2022-10-14T13:53:17.745Z,71.41
2022-10-14T13:55:51.569Z,71.47
2022-10-14T13:58:24.811Z,71.85
2022-10-14T14:00:58.490Z,71.86
2022-10-14T14:03:38.873Z,72.03
2022-10-14T14:06:17.352Z,71.92
2022-10-14T14:08:54.478Z,72.22
2022-10-14T14:11:33.438Z,71.99
2022-10-14T14:14:05.283Z,71.99
2022-10-14T14:16:42.055Z,71.83
2022-10-14T14:19:19.610Z,71.52
2022-10-14T14:21:46.352Z,71.21
2022-10-14T14:24:29.465Z,71.15
2022-10-14T14:26:56.489Z,71.01
2022-10-14T14:29:29.364Z,70.62
2022-10-14T14:32:12.831Z,70.37
2022-10-14T14:34:42.979Z,70.37
2022-10-14T14:40:06.916Z,70.01
2022-10-14T14:42:39.868Z,69.40
2022-10-14T14:45:20.996Z,69.64
2022-10-14T14:47:49.870Z,69.25
2022-10-14T14:50:43.458Z,70.01
2022-10-14T14:53:17.451Z,70.72
2022-10-14T14:56:10.524Z,70.54
2022-10-14T14:58:49.237Z,70.09
2022-10-14T15:01:22.974Z,70.28
2022-10-14T15:04:11.992Z,70.69
2022-10-14T15:06:50.628Z,69.51
2022-10-14T15:09:26.929Z,69.64
2022-10-14T15:11:56.170Z,70.15
2022-10-14T15:14:50.813Z,70.38
2022-10-14T15:17:29.758Z,70.11
2022-10-14T15:20:20.740Z,69.77
2022-10-14T15:22:49.129Z,69.88
2022-10-14T15:25:21.481Z,70.21
2022-10-14T15:27:59.048Z,70.50
2022-10-14T15:30:36.190Z,70.42
2022-10-14T15:33:19.820Z,70.55
2022-10-14T15:35:55.069Z,70.92
2022-10-14T15:38:21.840Z,70.18
2022-10-14T15:40:49.499Z,69.51
2022-10-14T15:43:18.729Z,69.47
2022-10-14T15:46:08.682Z,69.60
2022-10-14T15:48:35.517Z,69.48
2022-10-14T15:51:02.229Z,69.40
2022-10-14T15:53:29.461Z,69.17
2022-10-14T15:55:55.913Z,69.03
2022-10-14T15:58:22.457Z,69.15
2022-10-14T16:00:49.126Z,69.00
2022-10-14T16:03:17.671Z,68.34
2022-10-14T16:05:44.145Z,68.98
2022-10-14T16:08:13.844Z,67.98
2022-10-14T16:10:43.733Z,68.68
2022-10-14T16:13:12.233Z,68.51
2022-10-14T16:16:09.575Z,68.79
2022-10-14T16:18:36.054Z,68.88
2022-10-14T16:21:02.502Z,68.91
2022-10-14T16:23:31.138Z,68.33
2022-10-14T16:26:00.258Z,68.21
2022-10-14T16:28:26.830Z,68.80
2022-10-14T16:30:53.393Z,68.65
2022-10-14T16:33:22.041Z,68.73
2022-10-14T16:35:54.964Z,68.77
2022-10-14T16:38:22.385Z,68.81
2022-10-14T16:41:00.415Z,69.06
2022-10-14T16:43:28.222Z,69.00
2022-10-14T16:45:59.140Z,69.32
2022-10-14T16:48:26.864Z,69.25
2022-10-14T16:50:54.426Z,69.50
2022-10-14T16:53:40.623Z,69.18
2022-10-14T16:56:39.149Z,69.43
2022-10-14T16:59:07.762Z,69.47
2022-10-14T17:01:34.262Z,69.49
2022-10-14T17:04:00.802Z,69.77
2022-10-14T17:06:27.377Z,69.87
2022-10-14T17:08:54.723Z,69.68
2022-10-14T17:11:21.254Z,70.14
2022-10-14T17:13:52.255Z,69.92
2022-10-14T17:16:18.818Z,69.99
2022-10-14T17:18:45.392Z,70.06
2022-10-14T17:21:12.290Z,69.91
2022-10-14T17:23:43.962Z,70.25
2022-10-14T17:26:14.091Z,70.20
2022-10-14T17:28:42.263Z,70.01
2022-10-14T17:31:14.350Z,70.00
2022-10-14T17:33:41.086Z,70.26
2022-10-14T17:36:08.216Z,70.23
2022-10-14T17:38:35.626Z,70.34
2022-10-14T17:41:07.904Z,70.63
2022-10-14T17:43:36.512Z,70.78
2022-10-14T17:46:05.320Z,70.18
2022-10-14T17:48:33.584Z,70.33
2022-10-14T17:51:00.169Z,70.42
2022-10-14T17:53:26.638Z,70.45
2022-10-14T17:55:55.430Z,70.06
2022-10-14T17:58:24.264Z,70.31
2022-10-14T18:00:50.754Z,70.23
2022-10-14T18:03:17.893Z,70.36
2022-10-14T18:05:48.785Z,70.42
2022-10-14T18:08:15.823Z,70.38
2022-10-14T18:10:42.342Z,70.32
2022-10-14T18:13:08.886Z,70.38
2022-10-14T18:15:36.295Z,70.62
2022-10-14T18:18:02.877Z,70.66
2022-10-14T18:20:29.445Z,70.33
2022-10-14T18:22:56.029Z,70.69
2022-10-14T18:25:22.517Z,70.42
2022-10-14T18:27:49.494Z,70.74
2022-10-14T18:30:16.067Z,70.72
2022-10-14T18:32:42.550Z,70.93
2022-10-14T18:35:09.462Z,70.86
2022-10-14T18:37:35.950Z,70.63
2022-10-14T18:40:02.430Z,70.75
2022-10-14T18:42:29.106Z,70.65
2022-10-14T18:44:56.345Z,70.85
2022-10-14T18:47:22.868Z,70.83
2022-10-14T18:49:51.118Z,70.80
2022-10-14T18:52:18.964Z,70.58
2022-10-14T18:54:45.468Z,70.69
2022-10-14T18:57:15.015Z,70.77
2022-10-14T18:59:41.907Z,70.72
2022-10-14T19:02:12.697Z,70.79
2022-10-14T19:04:39.420Z,70.72
2022-10-14T19:07:07.224Z,70.57
2022-10-14T19:09:34.035Z,70.67
2022-10-14T19:12:00.715Z,70.64
2022-10-14T19:14:28.755Z,70.71
2022-10-14T19:16:55.396Z,70.50
2022-10-14T19:19:22.068Z,70.46
2022-10-14T19:21:50.576Z,70.53
2022-10-14T19:24:17.220Z,70.67
2022-10-14T19:26:46.477Z,70.68
2022-10-14T19:29:15.116Z,70.85
2022-10-14T19:31:43.584Z,70.64
2022-10-14T19:34:12.817Z,70.71
2022-10-14T19:36:40.113Z,70.82
2022-10-14T19:39:08.485Z,70.65
2022-10-14T19:41:42.666Z,70.65
2022-10-14T19:44:09.807Z,70.77
2022-10-14T19:46:36.527Z,70.70
2022-10-14T19:49:04.338Z,70.75
2022-10-14T19:51:32.737Z,71.07
2022-10-14T19:53:59.813Z,70.93
2022-10-14T19:56:27.392Z,70.66
2022-10-14T19:58:56.657Z,70.87
2022-10-14T20:01:25.089Z,70.85
2022-10-14T20:03:52.695Z,71.04
2022-10-14T20:06:20.941Z,71.07
2022-10-14T20:08:47.669Z,71.08
2022-10-14T20:11:17.307Z,71.00
2022-10-14T20:13:45.100Z,71.04
2022-10-14T20:16:12.384Z,71.08
2022-10-14T20:18:38.914Z,71.05
2022-10-14T20:21:06.737Z,71.05
2022-10-14T20:23:35.084Z,71.28
2022-10-14T20:26:03.242Z,71.19
2022-10-14T20:28:30.581Z,71.21
2022-10-14T20:30:57.489Z,71.41
2022-10-14T20:33:24.417Z,71.35
2022-10-14T20:36:02.937Z,71.48
2022-10-14T20:38:29.780Z,71.35
2022-10-14T20:41:02.159Z,71.73
2022-10-14T20:43:28.765Z,71.75
2022-10-14T20:45:55.856Z,71.61
2022-10-14T20:48:22.545Z,71.73
2022-10-14T20:50:49.146Z,71.73
2022-10-14T20:53:15.821Z,71.81
2022-10-14T20:55:42.285Z,71.92
2022-10-14T20:58:08.751Z,71.90
2022-10-14T21:00:35.329Z,72.02
2022-10-14T21:03:01.903Z,72.11
2022-10-14T21:05:28.638Z,72.03
2022-10-14T21:07:55.213Z,72.11
2022-10-14T21:10:22.075Z,71.90
2022-10-14T21:12:48.969Z,72.14
2022-10-14T21:15:15.829Z,72.05
2022-10-14T21:17:48.093Z,72.00
2022-10-14T21:20:15.081Z,72.15
2022-10-14T21:22:41.665Z,71.90
2022-10-14T21:25:08.284Z,72.17
2022-10-14T21:27:34.736Z,71.90
2022-10-14T21:30:01.255Z,72.15
2022-10-14T21:32:27.759Z,71.88
2022-10-14T21:34:54.202Z,71.81
2022-10-14T21:37:20.690Z,71.76
2022-10-14T21:39:47.266Z,71.98
2022-10-14T21:42:14.336Z,71.83
2022-10-14T21:44:40.973Z,71.81
2022-10-14T21:47:07.535Z,71.66
2022-10-14T21:49:34.017Z,71.98
2022-10-14T21:52:00.485Z,72.04
2022-10-14T21:54:27.124Z,71.92
2022-10-14T21:56:53.661Z,72.01
2022-10-14T21:59:20.201Z,71.98
2022-10-14T22:01:46.709Z,72.11
2022-10-14T22:04:13.442Z,72.04
2022-10-14T22:06:39.945Z,72.04
2022-10-14T22:09:07.574Z,72.14
2022-10-14T22:11:37.292Z,72.24
2022-10-14T22:14:05.907Z,72.07
2022-10-14T22:16:32.970Z,71.96
2022-10-14T22:19:01.016Z,71.91
2022-10-14T22:21:29.580Z,72.17
2022-10-14T22:23:56.145Z,72.13
2022-10-14T22:26:25.147Z,72.20
2022-10-14T22:29:14.596Z,72.13
2022-10-14T22:31:41.376Z,72.19
2022-10-14T22:34:10.173Z,72.39
2022-10-14T22:36:37.063Z,72.22
2022-10-14T22:39:06.959Z,72.25
2022-10-14T22:41:35.750Z,72.58
2022-10-14T22:44:04.189Z,72.36
2022-10-14T22:46:32.695Z,72.44
2022-10-14T22:49:00.751Z,72.38
2022-10-14T22:51:36.211Z,72.61
2022-10-14T22:54:03.589Z,72.71
2022-10-14T22:56:32.042Z,72.68
2022-10-14T22:59:03.307Z,72.59
2022-10-14T23:01:30.423Z,72.59
2022-10-14T23:03:58.228Z,72.68
2022-10-14T23:06:25.593Z,72.69
2022-10-14T23:08:52.117Z,72.94
2022-10-14T23:11:21.310Z,72.62
2022-10-14T23:13:48.046Z,72.84
2022-10-14T23:16:17.423Z,72.61
2022-10-14T23:18:45.152Z,73.00
2022-10-14T23:21:15.758Z,73.09
2022-10-14T23:23:43.237Z,72.82
2022-10-14T23:26:13.965Z,73.36
2022-10-14T23:28:41.393Z,73.09
2022-10-14T23:31:12.387Z,73.12
2022-10-14T23:33:39.601Z,73.23
2022-10-14T23:36:09.041Z,73.18
2022-10-14T23:38:36.340Z,73.59
2022-10-14T23:41:04.194Z,73.75
2022-10-14T23:43:31.053Z,74.10
2022-10-14T23:45:57.574Z,74.21
2022-10-14T23:48:24.257Z,74.13
2022-10-14T23:50:51.040Z,74.48
2022-10-14T23:53:17.928Z,74.69
2022-10-14T23:55:44.593Z,74.84
2022-10-14T23:58:11.331Z,75.25
